Time;durP1;ratioP1;P1;durP2;ratioP2;P2;SDS_P1;SDS_P2;PMS_P1;PMS_P2;Temp;Humidity;BMP_temperature;BMP_pressure;BME280_temperature;BME280_humidity;BME280_pressure;Samples;Min_cycle;Max_cycle;Signal;HPM_P1;HPM_P2
2022/03/08 00:01:40;;;;;;;13.17;11.80;;;;;;;-4.56;100.00;97747.25;4963652;28;21233;-50
2022/03/08 00:04:08;;;;;;;15.50;12.03;;;;;;;-4.53;100.00;97737.59;4935650;28;20367;-56
2022/03/08 00:06:37;;;;;;;11.70;10.07;;;;;;;-4.50;100.00;97744.34;4946347;28;20324;-52
2022/03/08 00:09:05;;;;;;;11.27;10.17;;;;;;;-4.58;100.00;97752.47;4966052;28;20984;-52
2022/03/08 00:11:35;;;;;;;11.47;10.07;;;;;;;-4.80;100.00;97748.38;4954341;28;20257;-52
2022/03/08 00:14:03;;;;;;;12.30;10.73;;;;;;;-5.03;100.00;97740.88;4960493;28;20237;-53
2022/03/08 00:16:32;;;;;;;11.10;10.00;;;;;;;-5.16;100.00;97738.88;4955830;28;20322;-55
2022/03/08 00:19:04;;;;;;;13.87;10.43;;;;;;;-5.22;100.00;97741.75;4932231;28;20247;-56
2022/03/08 00:21:32;;;;;;;11.10;8.97;;;;;;;-4.96;100.00;97737.06;4954356;28;20473;-54
2022/03/08 00:24:00;;;;;;;12.63;10.57;;;;;;;-5.23;100.00;97740.06;4956347;28;20792;-54
2022/03/08 00:26:28;;;;;;;15.00;11.30;;;;;;;-5.31;100.00;97737.84;4958954;28;20756;-50
2022/03/08 00:28:58;;;;;;;10.97;9.90;;;;;;;-5.40;100.00;97740.84;4949013;28;20207;-53
2022/03/08 00:31:26;;;;;;;11.63;10.43;;;;;;;-5.43;100.00;97741.00;4964835;28;20290;-53
2022/03/08 00:33:54;;;;;;;11.57;10.37;;;;;;;-5.52;100.00;97732.75;4930599;28;20223;-53
2022/03/08 00:36:22;;;;;;;10.87;9.87;;;;;;;-5.56;100.00;97732.97;4950718;28;20564;-53
2022/03/08 00:38:52;;;;;;;12.60;10.53;;;;;;;-5.72;100.00;97714.75;4959215;28;20265;-52
2022/03/08 00:41:20;;;;;;;11.30;10.13;;;;;;;-5.71;100.00;97716.41;4958107;28;20578;-49
2022/03/08 00:43:48;;;;;;;13.90;10.20;;;;;;;-5.78;100.00;97715.03;4949366;28;20206;-51
2022/03/08 00:46:18;;;;;;;10.93;9.80;;;;;;;-5.90;100.00;97719.81;4953974;28;20300;-54
2022/03/08 00:48:46;;;;;;;13.60;9.83;;;;;;;-5.94;100.00;97720.03;4966366;28;20461;-52
2022/03/08 00:51:15;;;;;;;10.63;9.53;;;;;;;-6.03;100.00;97708.38;4936476;28;20223;-57
2022/03/08 00:53:44;;;;;;;13.13;10.63;;;;;;;-6.14;100.00;97720.03;4954882;28;20648;-53
2022/03/08 00:56:12;;;;;;;11.00;9.90;;;;;;;-6.23;100.00;97720.44;4960136;28;20240;-55
2022/03/08 00:58:41;;;;;;;11.60;10.43;;;;;;;-6.29;100.00;97716.38;4951070;28;20220;-53
2022/03/08 01:01:09;;;;;;;11.27;10.10;;;;;;;-6.28;100.00;97710.28;4952121;28;20603;-56
2022/03/08 01:03:39;;;;;;;13.93;11.13;;;;;;;-6.30;100.00;97713.84;4959361;28;20297;-50
2022/03/08 01:06:07;;;;;;;11.97;10.57;;;;;;;-6.27;100.00;97711.97;4931708;28;20221;-55
2022/03/08 01:08:35;;;;;;;12.53;11.33;;;;;;;-6.31;100.00;97714.75;4947885;28;20221;-52
2022/03/08 01:11:03;;;;;;;14.47;11.43;;;;;;;-6.36;100.00;97703.78;4959703;28;20333;-56
2022/03/08 01:13:32;;;;;;;12.77;10.57;;;;;;;-6.28;100.00;97707.72;4950695;28;20241;-51
2022/03/08 01:16:00;;;;;;;12.77;10.83;;;;;;;-6.18;100.00;97705.59;4956746;28;20575;-53
2022/03/08 01:18:29;;;;;;;14.03;11.57;;;;;;;-6.37;100.00;97702.97;4960819;28;20839;-50
2022/03/08 01:21:00;;;;;;;12.60;11.30;;;;;;;-6.48;100.00;97694.81;4926563;28;20218;-52
2022/03/08 01:23:28;;;;;;;13.80;11.53;;;;;;;-6.21;100.00;97697.97;4948239;28;20212;-52
2022/03/08 01:25:56;;;;;;;14.43;11.67;;;;;;;-5.99;100.00;97691.84;4958278;28;20570;-53
2022/03/08 01:28:24;;;;;;;12.03;10.83;;;;;;;-6.08;100.00;97689.69;4954703;28;20206;-54
2022/03/08 01:30:53;;;;;;;14.87;11.17;;;;;;;-5.82;100.00;97688.50;4954413;28;20759;-54
2022/03/08 01:33:21;;;;;;;18.17;12.77;;;;;;;-5.56;100.00;97682.13;4959647;28;20735;-55
2022/03/08 01:35:49;;;;;;;12.00;10.63;;;;;;;-5.55;100.00;97672.66;4965513;28;20279;-54
2022/03/08 01:38:19;;;;;;;13.73;10.27;;;;;;;-5.49;100.00;97662.03;4925194;28;20232;-56
2022/03/08 01:40:47;;;;;;;11.97;10.57;;;;;;;-5.48;100.00;97660.31;4949310;28;21122;-55
2022/03/08 01:43:15;;;;;;;13.20;10.73;;;;;;;-5.27;100.00;97667.03;4959036;28;20457;-54
2022/03/08 01:45:43;;;;;;;12.90;10.83;;;;;;;-5.54;100.00;97659.66;4949949;28;20884;-54
2022/03/08 01:48:12;;;;;;;12.93;11.37;;;;;;;-5.50;100.00;97657.78;4958732;28;20961;-54
2022/03/08 01:50:40;;;;;;;11.60;10.40;;;;;;;-5.75;100.00;97661.50;4958918;28;20206;-54
2022/03/08 01:53:08;;;;;;;13.80;11.17;;;;;;;-5.83;100.00;97656.72;4926408;28;20301;-57
2022/03/08 01:55:38;;;;;;;11.97;10.43;;;;;;;-5.92;100.00;97653.69;4948531;28;20677;-56
2022/03/08 01:58:06;;;;;;;10.83;9.70;;;;;;;-6.07;100.00;97650.09;4959280;28;20298;-56
2022/03/08 02:00:34;;;;;;;13.07;9.90;;;;;;;-6.04;100.00;97652.53;4962027;28;20277;-53
2022/03/08 02:03:03;;;;;;;14.10;10.50;;;;;;;-5.99;100.00;97645.38;4950216;28;20245;-54
2022/03/08 02:05:31;;;;;;;11.40;9.60;;;;;;;-5.84;100.00;97644.72;4956850;28;20811;-52
2022/03/08 02:08:00;;;;;;;11.50;9.67;;;;;;;-5.83;100.00;97641.22;4930155;28;20476;-51
2022/03/08 02:10:28;;;;;;;10.47;9.47;;;;;;;-5.88;100.00;97634.59;4948106;28;20735;-54
2022/03/08 02:12:57;;;;;;;10.50;9.47;;;;;;;-5.95;100.00;97626.28;4959046;28;20472;-50
2022/03/08 02:15:27;;;;;;;13.27;10.53;;;;;;;-6.11;100.00;97621.84;4957515;28;20458;-52
2022/03/08 02:17:56;;;;;;;10.40;9.27;;;;;;;-6.18;100.00;97622.19;4950454;28;20324;-52
2022/03/08 02:20:25;;;;;;;10.03;9.03;;;;;;;-5.94;100.00;97617.63;4958632;28;20969;-51
2022/03/08 02:22:55;;;;;;;11.80;10.20;;;;;;;-6.01;100.00;97626.59;4961254;28;20987;-52
2022/03/08 02:25:23;;;;;;;12.37;9.30;;;;;;;-5.96;100.00;97625.44;4920107;28;20709;-50
2022/03/08 02:27:53;;;;;;;11.40;9.33;;;;;;;-6.03;100.00;97615.50;4969604;28;20292;-52
2022/03/08 02:30:23;;;;;;;10.97;9.83;;;;;;;-6.03;100.00;97624.09;4961654;28;20308;-54
2022/03/08 02:32:52;;;;;;;12.10;10.37;;;;;;;-6.02;100.00;97618.03;4955673;28;20472;-53
2022/03/08 02:35:21;;;;;;;11.73;10.53;;;;;;;-5.88;100.00;97608.78;4960598;28;20312;-55
2022/03/08 02:37:52;;;;;;;14.30;11.13;;;;;;;-5.88;100.00;97611.34;4960116;28;20887;-54
2022/03/08 02:40:24;;;;;;;11.27;9.93;;;;;;;-5.87;100.00;97613.03;4925008;28;20583;-50
2022/03/08 02:42:52;;;;;;;12.73;9.53;;;;;;;-5.87;100.00;97613.88;4952009;28;20741;-52
2022/03/08 02:45:21;;;;;;;12.00;10.87;;;;;;;-5.74;100.00;97608.13;4960528;28;20291;-57
2022/03/08 02:47:49;;;;;;;11.87;10.63;;;;;;;-5.72;100.00;97604.56;4960410;28;20953;-52
2022/03/08 02:50:18;;;;;;;10.57;9.47;;;;;;;-5.76;100.00;97605.63;4953058;28;20548;-58
2022/03/08 02:52:51;;;;;;;11.07;9.60;;;;;;;-5.83;100.00;97610.25;4959764;28;20762;-52
2022/03/08 02:55:21;;;;;;;11.20;10.03;;;;;;;-5.78;100.00;97610.00;4932758;28;21681;-51
2022/03/08 02:57:51;;;;;;;10.40;9.33;;;;;;;-5.72;100.00;97607.13;4951286;28;20218;-51
2022/03/08 03:00:21;;;;;;;10.60;9.57;;;;;;;-5.75;100.00;97609.03;4960856;28;20468;-49
2022/03/08 03:02:49;;;;;;;10.73;9.73;;;;;;;-5.82;100.00;97616.22;4961562;28;20449;-52
2022/03/08 03:05:17;;;;;;;11.43;10.17;;;;;;;-6.04;100.00;97616.41;4932674;28;20464;-54
2022/03/08 03:07:45;;;;;;;9.73;8.73;;;;;;;-6.29;100.00;97615.78;4963577;28;21910;-52
2022/03/08 03:10:15;;;;;;;10.67;9.60;;;;;;;-6.43;100.00;97616.38;4930887;28;20226;-54
2022/03/08 03:12:44;;;;;;;12.13;11.00;;;;;;;-6.51;100.00;97613.31;4951891;28;20210;-54
2022/03/08 03:15:15;;;;;;;13.17;11.77;;;;;;;-6.68;100.00;97614.03;4962395;28;20210;-55
2022/03/08 03:17:43;;;;;;;13.93;12.33;;;;;;;-6.70;100.00;97616.66;4963039;28;20230;-50
2022/03/08 03:20:13;;;;;;;14.70;11.53;;;;;;;-6.71;100.00;97617.56;4950381;28;21026;-55
2022/03/08 03:22:41;;;;;;;12.00;10.33;;;;;;;-6.80;100.00;97609.41;4964378;28;20492;-50
2022/03/08 03:25:10;;;;;;;12.03;9.27;;;;;;;-6.82;100.00;97609.47;4924105;28;20253;-50
2022/03/08 03:27:39;;;;;;;13.60;10.93;;;;;;;-6.91;100.00;97620.16;4961599;28;20276;-51
2022/03/08 03:30:10;;;;;;;12.33;9.67;;;;;;;-7.08;100.00;97621.69;4946880;28;20269;-52
2022/03/08 03:32:40;;;;;;;14.37;11.23;;;;;;;-7.20;100.00;97620.44;4944678;28;20542;-57
2022/03/08 03:35:10;;;;;;;12.77;10.53;;;;;;;-7.08;100.00;97626.84;4949912;28;20324;-49
2022/03/08 03:37:38;;;;;;;11.17;10.07;;;;;;;-7.08;100.00;97620.84;4963026;28;20345;-55
2022/03/08 03:40:08;;;;;;;13.00;10.30;;;;;;;-7.18;100.00;97626.41;4923481;28;21509;-52
2022/03/08 03:42:36;;;;;;;15.60;11.70;;;;;;;-7.28;100.00;97618.19;4965731;28;20693;-50
2022/03/08 03:45:06;;;;;;;14.70;11.30;;;;;;;-7.39;100.00;97612.63;4951950;28;20625;-54
2022/03/08 03:47:34;;;;;;;12.73;10.50;;;;;;;-7.40;100.00;97626.41;4962490;28;20257;-55
2022/03/08 03:50:04;;;;;;;11.57;10.47;;;;;;;-7.41;100.00;97619.56;4949061;28;21779;-52
2022/03/08 03:52:32;;;;;;;12.57;10.67;;;;;;;-7.44;100.00;97612.81;4959108;28;20214;-51
2022/03/08 03:55:01;;;;;;;12.90;10.93;;;;;;;-7.42;100.00;97615.31;4927005;28;21526;-50
2022/03/08 03:57:29;;;;;;;12.27;10.83;;;;;;;-7.49;100.00;97614.75;4965437;28;20313;-54
2022/03/08 03:59:57;;;;;;;13.30;11.00;;;;;;;-7.51;100.00;97608.81;4950795;28;20517;-49
2022/03/08 04:02:25;;;;;;;12.40;11.10;;;;;;;-7.52;100.00;97604.56;4943064;28;20470;-53
2022/03/08 04:04:54;;;;;;;12.20;10.90;;;;;;;-7.51;100.00;97616.56;4959095;28;20211;-49
2022/03/08 04:07:23;;;;;;;14.30;11.20;;;;;;;-7.52;100.00;97608.88;4951519;28;20226;-51
2022/03/08 04:09:52;;;;;;;13.07;10.97;;;;;;;-7.44;100.00;97602.53;4933884;28;20989;-56
2022/03/08 04:12:20;;;;;;;13.00;11.47;;;;;;;-7.43;100.00;97611.06;4939278;28;20755;-49
2022/03/08 04:14:48;;;;;;;15.77;11.27;;;;;;;-7.27;100.00;97611.28;4959866;28;20547;-54
2022/03/08 04:17:16;;;;;;;18.20;11.70;;;;;;;-7.33;100.00;97603.81;4943563;28;20518;-52
2022/03/08 04:19:45;;;;;;;9.70;8.90;;;;;;;-7.41;100.00;97599.81;4960061;28;20912;-56
2022/03/08 04:22:13;;;;;;;10.57;9.50;;;;;;;-7.37;100.00;97600.56;4948878;28;20923;-51
2022/03/08 04:24:42;;;;;;;13.13;10.53;;;;;;;-7.45;100.00;97602.56;4965982;28;20547;-53
2022/03/08 04:27:11;;;;;;;12.90;10.27;;;;;;;-7.46;100.00;97608.63;4904388;28;20237;-53
2022/03/08 04:29:39;;;;;;;9.50;8.53;;;;;;;-7.31;100.00;97602.88;4938395;28;21145;-51
2022/03/08 04:32:08;;;;;;;10.90;9.33;;;;;;;-7.22;100.00;97608.53;4952823;28;20308;-56
2022/03/08 04:34:36;;;;;;;12.87;9.30;;;;;;;-7.27;100.00;97607.00;4946115;28;22007;-55
2022/03/08 04:37:04;;;;;;;10.07;9.20;;;;;;;-7.30;100.00;97604.56;4970328;28;20492;-53
2022/03/08 04:39:33;;;;;;;13.30;9.60;;;;;;;-7.23;100.00;97609.44;4949902;28;20534;-53
2022/03/08 04:42:02;;;;;;;10.57;9.23;;;;;;;-7.12;100.00;97612.41;4923276;28;20567;-50
2022/03/08 04:44:31;;;;;;;12.80;9.40;;;;;;;-7.08;100.00;97613.13;4944888;28;20737;-50
2022/03/08 04:46:59;;;;;;;11.53;10.27;;;;;;;-7.00;100.00;97619.66;4963020;28;20485;-53
2022/03/08 04:49:27;;;;;;;11.17;9.40;;;;;;;-6.90;100.00;97614.09;4945556;28;20524;-53
2022/03/08 04:51:55;;;;;;;9.80;7.90;;;;;;;-6.96;100.00;97614.38;4965079;28;20233;-52
2022/03/08 04:54:23;;;;;;;10.43;8.73;;;;;;;-6.91;100.00;97623.56;4946967;28;20329;-57
2022/03/08 04:56:52;;;;;;;9.23;8.33;;;;;;;-7.05;100.00;97616.41;4926631;28;20896;-49
2022/03/08 04:59:22;;;;;;;9.10;8.30;;;;;;;-6.94;100.00;97622.88;4961027;28;20544;-56
2022/03/08 05:01:50;;;;;;;9.47;8.67;;;;;;;-6.96;100.00;97622.91;4956983;28;20210;-52
2022/03/08 05:04:18;;;;;;;10.77;9.77;;;;;;;-6.90;100.00;97624.41;4941848;28;20461;-50
2022/03/08 05:06:47;;;;;;;9.83;8.97;;;;;;;-6.93;100.00;97627.13;4960005;28;20540;-50
2022/03/08 05:09:15;;;;;;;9.57;8.67;;;;;;;-6.93;100.00;97607.34;4951965;28;20891;-55
2022/03/08 05:11:43;;;;;;;8.87;8.13;;;;;;;-6.92;100.00;97628.78;4961257;28;21017;-51
2022/03/08 05:14:11;;;;;;;9.93;8.60;;;;;;;-7.11;100.00;97632.13;4929661;28;20230;-51
2022/03/08 05:16:41;;;;;;;9.37;8.37;;;;;;;-7.06;100.00;97622.47;4957888;28;20818;-53
2022/03/08 05:19:10;;;;;;;7.70;7.10;;;;;;;-7.19;100.00;97632.44;4946277;28;22208;-47
2022/03/08 05:21:38;;;;;;;10.33;8.13;;;;;;;-7.24;100.00;97626.63;4962662;28;20458;-55
2022/03/08 05:24:06;;;;;;;10.47;9.17;;;;;;;-7.37;100.00;97626.31;4952950;28;21219;-53
2022/03/08 05:26:37;;;;;;;10.97;9.83;;;;;;;-7.47;100.00;97627.53;4964139;28;20581;-51
2022/03/08 05:29:05;;;;;;;10.13;8.03;;;;;;;-7.16;100.00;97627.16;4920360;28;21186;-51
2022/03/08 05:31:34;;;;;;;11.13;10.03;;;;;;;-7.12;100.00;97633.88;4961099;28;20497;-50
2022/03/08 05:34:04;;;;;;;9.63;8.73;;;;;;;-7.23;100.00;97630.06;4957911;28;20206;-57
2022/03/08 05:36:33;;;;;;;11.03;10.03;;;;;;;-7.35;100.00;97632.22;4942970;28;20480;-52
2022/03/08 05:39:01;;;;;;;11.60;9.40;;;;;;;-7.22;100.00;97626.56;4956894;28;20461;-52
2022/03/08 05:41:29;;;;;;;10.07;9.07;;;;;;;-7.28;100.00;97631.06;4952327;28;20523;-55
2022/03/08 05:43:57;;;;;;;12.67;9.87;;;;;;;-7.25;100.00;97619.78;4929568;28;20489;-55
2022/03/08 05:46:26;;;;;;;10.13;9.23;;;;;;;-7.16;100.00;97628.88;4958179;28;20485;-50
2022/03/08 05:48:54;;;;;;;10.33;9.40;;;;;;;-7.12;100.00;97627.88;4960345;28;20461;-54
2022/03/08 05:51:24;;;;;;;10.53;9.43;;;;;;;-7.34;100.00;97628.75;4945667;28;21852;-54
2022/03/08 05:53:52;;;;;;;8.90;8.00;;;;;;;-7.41;100.00;97625.56;4959621;28;20461;-52
2022/03/08 05:56:20;;;;;;;10.23;9.13;;;;;;;-7.33;100.00;97637.28;4950644;28;20762;-49
2022/03/08 05:58:48;;;;;;;11.03;9.83;;;;;;;-7.41;100.00;97637.59;4962600;28;20532;-53
2022/03/08 06:01:16;;;;;;;11.73;9.97;;;;;;;-7.38;100.00;97641.78;4925071;28;20418;-53
2022/03/08 06:03:45;;;;;;;11.60;9.73;;;;;;;-7.15;100.00;97644.31;4938902;28;21166;-58
2022/03/08 06:06:13;;;;;;;10.53;9.60;;;;;;;-6.87;100.00;97647.47;4955111;28;20592;-56
2022/03/08 06:08:43;;;;;;;10.00;9.10;;;;;;;-6.89;100.00;97641.53;4954913;28;20555;-49
2022/03/08 06:11:11;;;;;;;12.20;9.20;;;;;;;-6.73;100.00;97645.16;4951482;28;20488;-53
2022/03/08 06:13:42;;;;;;;10.57;9.57;;;;;;;-6.61;100.00;97646.38;4963123;28;20555;-55
2022/03/08 06:16:10;;;;;;;9.93;8.93;;;;;;;-6.53;100.00;97646.06;4920962;28;20237;-53
2022/03/08 06:18:38;;;;;;;10.43;9.43;;;;;;;-6.49;100.00;97647.59;4959189;28;20903;-53
2022/03/08 06:21:07;;;;;;;9.97;9.07;;;;;;;-6.37;100.00;97642.78;4961220;28;20461;-47
2022/03/08 06:23:36;;;;;;;10.90;9.00;;;;;;;-6.32;100.00;97646.84;4945485;28;20539;-50
2022/03/08 06:26:05;;;;;;;10.90;9.27;;;;;;;-6.27;100.00;97642.34;4960610;28;20721;-55
2022/03/08 06:28:34;;;;;;;11.03;10.00;;;;;;;-6.15;100.00;97650.44;4947602;28;20449;-52
2022/03/08 06:31:02;;;;;;;13.10;11.07;;;;;;;-6.02;100.00;97645.56;4943516;28;20777;-53
2022/03/08 06:33:30;;;;;;;12.13;9.33;;;;;;;-5.98;100.00;97650.50;4922656;28;20749;-54
2022/03/08 06:35:58;;;;;;;12.03;9.40;;;;;;;-5.93;100.00;97646.88;4952788;28;21075;-50
2022/03/08 06:38:27;;;;;;;10.60;9.53;;;;;;;-5.84;100.00;97651.59;4946241;28;20533;-51
2022/03/08 06:40:56;;;;;;;11.73;9.83;;;;;;;-5.78;100.00;97643.56;4960627;28;21082;-52
2022/03/08 06:43:25;;;;;;;13.63;9.63;;;;;;;-5.70;100.00;97645.81;4952870;28;20741;-52
2022/03/08 06:45:54;;;;;;;12.80;10.23;;;;;;;-5.61;100.00;97647.13;4962681;28;20554;-54
2022/03/08 06:48:22;;;;;;;11.50;10.33;;;;;;;-5.70;100.00;97649.22;4919576;28;20210;-54
2022/03/08 06:50:51;;;;;;;12.83;9.93;;;;;;;-5.67;100.00;97645.66;4952846;28;20206;-51
2022/03/08 06:53:19;;;;;;;10.07;9.07;;;;;;;-5.38;100.00;97643.47;4945641;28;20793;-50
2022/03/08 06:55:47;;;;;;;11.67;9.30;;;;;;;-5.12;100.00;97646.53;4956451;28;20254;-48
2022/03/08 06:58:15;;;;;;;13.43;10.07;;;;;;;-4.98;100.00;97651.03;4949438;28;20554;-55
2022/03/08 07:00:45;;;;;;;16.43;11.10;;;;;;;-4.90;100.00;97655.81;4958900;28;20242;-52
2022/03/08 07:03:13;;;;;;;13.17;11.13;;;;;;;-4.86;100.00;97657.34;4927135;28;20478;-52
2022/03/08 07:05:41;;;;;;;11.50;10.30;;;;;;;-4.70;100.00;97657.41;4956550;28;20449;-52
2022/03/08 07:08:10;;;;;;;10.87;9.80;;;;;;;-4.49;100.00;97650.31;4949287;28;20738;-53
2022/03/08 07:10:38;;;;;;;12.47;11.17;;;;;;;-4.44;100.00;97644.94;4954306;28;20413;-48
2022/03/08 07:13:06;;;;;;;14.90;11.50;;;;;;;-4.23;100.00;97663.69;4967755;28;20292;-56
2022/03/08 07:15:34;;;;;;;12.40;11.20;;;;;;;-4.12;100.00;97663.13;4954390;28;20233;-53
2022/03/08 07:18:04;;;;;;;9.90;8.83;;;;;;;-4.04;100.00;97660.97;4928879;28;20477;-54
2022/03/08 07:20:32;;;;;;;11.37;10.27;;;;;;;-3.96;100.00;97660.56;4962833;28;20245;-50
2022/03/08 07:23:00;;;;;;;13.53;10.90;;;;;;;-3.74;100.00;97662.00;4962636;28;20229;-48
2022/03/08 07:25:29;;;;;;;12.40;10.17;;;;;;;-3.60;100.00;97648.31;4951381;28;20323;-52
2022/03/08 07:27:57;;;;;;;11.87;10.87;;;;;;;-3.43;100.00;97649.97;4963668;28;20210;-51
2022/03/08 07:30:45;;;;;;;11.03;9.67;;;;;;;-3.51;100.00;97648.66;4956087;28;20618;-54
2022/03/08 07:33:15;;;;;;;11.07;10.03;;;;;;;-3.17;100.00;97645.09;4952156;28;20606;-50
2022/03/08 07:35:44;;;;;;;12.87;11.67;;;;;;;-3.15;100.00;97653.63;4950540;28;20342;-47
2022/03/08 07:38:12;;;;;;;11.93;9.90;;;;;;;-2.89;100.00;97653.88;4954158;28;20804;-53
2022/03/08 07:40:40;;;;;;;11.00;9.87;;;;;;;-2.61;100.00;97666.13;4952504;28;20855;-46
2022/03/08 07:43:08;;;;;;;12.97;10.47;;;;;;;-2.45;100.00;97666.06;4964896;28;20226;-52
2022/03/08 07:45:37;;;;;;;11.10;9.40;;;;;;;-2.42;100.00;97662.44;4944325;28;22792;-53
2022/03/08 07:48:06;;;;;;;10.67;9.67;;;;;;;-2.11;100.00;97664.03;4958367;28;20214;-52
2022/03/08 07:50:36;;;;;;;10.50;9.50;;;;;;;-1.88;100.00;97664.41;4925032;28;20351;-52
2022/03/08 07:53:05;;;;;;;10.93;9.87;;;;;;;-1.78;100.00;97667.28;4960475;28;20199;-50
2022/03/08 07:55:34;;;;;;;10.03;9.20;;;;;;;-1.57;100.00;97666.84;4949962;28;20293;-49
2022/03/08 07:58:04;;;;;;;13.83;9.37;;;;;;;-1.32;100.00;97666.19;4962899;28;20455;-55
2022/03/08 08:00:33;;;;;;;9.60;8.77;;;;;;;-0.99;100.00;97658.91;4961774;28;20619;-48
2022/03/08 08:03:03;;;;;;;10.53;9.53;;;;;;;-0.85;100.00;97655.41;4950978;28;20399;-54
2022/03/08 08:05:33;;;;;;;10.17;9.17;;;;;;;-0.73;100.00;97662.41;4933768;28;20217;-49
2022/03/08 08:08:04;;;;;;;10.50;9.53;;;;;;;-0.56;100.00;97661.28;4956566;28;20234;-52
2022/03/08 08:10:32;;;;;;;10.57;9.43;;;;;;;-0.25;100.00;97661.81;4948949;28;20265;-53
2022/03/08 08:13:01;;;;;;;15.47;11.67;;;;;;;0.13;100.00;97663.56;4960284;28;20206;-48
2022/03/08 08:15:29;;;;;;;11.37;10.23;;;;;;;0.33;100.00;97668.34;4963249;28;20280;-50
2022/03/08 08:17:58;;;;;;;10.23;9.27;;;;;;;0.40;100.00;97656.53;4948029;28;20242;-49
2022/03/08 08:20:26;;;;;;;9.60;8.23;;;;;;;0.45;100.00;97658.84;4968986;28;20747;-49
2022/03/08 08:22:54;;;;;;;8.80;8.00;;;;;;;0.71;100.00;97657.78;4922538;28;20304;-54
2022/03/08 08:25:24;;;;;;;9.67;8.37;;;;;;;0.95;100.00;97662.19;4961960;28;20808;-52
2022/03/08 08:27:52;;;;;;;8.77;7.80;;;;;;;1.16;100.00;97658.97;4949371;28;20580;-53
2022/03/08 08:30:20;;;;;;;9.93;8.80;;;;;;;1.21;100.00;97663.81;4959255;28;20198;-49
2022/03/08 08:32:50;;;;;;;9.47;8.33;;;;;;;1.24;100.00;97661.84;4946832;28;20426;-54
2022/03/08 08:35:18;;;;;;;9.23;8.33;;;;;;;1.39;100.00;97659.88;4962014;28;20205;-56
2022/03/08 08:37:47;;;;;;;7.90;7.10;;;;;;;1.63;100.00;97669.41;4924856;28;20262;-51
2022/03/08 08:40:15;;;;;;;7.53;6.93;;;;;;;1.67;100.00;97667.41;4961508;28;20230;-55
2022/03/08 08:42:44;;;;;;;7.00;6.30;;;;;;;1.79;100.00;97671.69;4946822;28;20423;-55
2022/03/08 08:45:14;;;;;;;6.60;6.10;;;;;;;1.68;100.00;97677.72;4964572;28;20198;-55
2022/03/08 08:47:42;;;;;;;6.50;5.90;;;;;;;1.82;100.00;97673.25;4950591;28;20320;-54
2022/03/08 08:50:10;;;;;;;6.60;6.00;;;;;;;1.76;100.00;97665.88;4963608;28;20288;-51
2022/03/08 08:52:39;;;;;;;6.30;5.70;;;;;;;1.83;100.00;97661.84;4922308;28;20218;-50
2022/03/08 08:55:07;;;;;;;6.83;6.27;;;;;;;2.03;100.00;97665.56;4966378;28;20670;-53
2022/03/08 08:57:37;;;;;;;6.83;6.33;;;;;;;2.00;100.00;97658.78;4946821;28;20417;-52
2022/03/08 09:00:08;;;;;;;8.27;6.80;;;;;;;2.00;100.00;97656.16;4965007;28;20245;-54
2022/03/08 09:02:40;;;;;;;7.67;6.40;;;;;;;2.08;100.00;97658.19;4956981;28;20916;-52
2022/03/08 09:05:09;;;;;;;7.07;6.37;;;;;;;1.98;100.00;97654.63;4952792;28;20678;-55
2022/03/08 09:07:39;;;;;;;6.20;5.70;;;;;;;2.12;100.00;97661.41;4922954;28;20466;-52
2022/03/08 09:10:08;;;;;;;6.60;5.90;;;;;;;2.21;98.13;97662.47;4961953;28;20209;-53
2022/03/08 09:12:37;;;;;;;6.57;6.07;;;;;;;2.13;91.62;97661.28;4959123;28;20484;-56
2022/03/08 09:15:07;;;;;;;7.67;7.00;;;;;;;2.13;100.00;97657.84;4949333;28;20221;-55
2022/03/08 09:17:37;;;;;;;8.27;6.03;;;;;;;2.37;95.09;97651.63;4957114;28;20292;-52
2022/03/08 09:20:07;;;;;;;6.03;5.50;;;;;;;2.49;91.20;97642.84;4950220;28;20332;-48
2022/03/08 09:22:35;;;;;;;6.00;5.50;;;;;;;2.65;90.58;97644.22;4927481;28;22627;-51
2022/03/08 09:25:03;;;;;;;6.17;5.67;;;;;;;2.80;88.89;97648.22;4963009;28;20733;-50
2022/03/08 09:27:34;;;;;;;6.40;5.77;;;;;;;2.72;84.16;97646.22;4954723;28;20441;-50
2022/03/08 09:30:02;;;;;;;6.60;6.00;;;;;;;2.74;84.64;97633.00;4955284;28;20726;-51
2022/03/08 09:32:32;;;;;;;5.53;5.13;;;;;;;3.00;76.27;97636.13;4955656;28;20209;-50
2022/03/08 09:35:00;;;;;;;6.03;5.43;;;;;;;3.01;67.51;97634.38;4955145;28;20202;-51
2022/03/08 09:37:28;;;;;;;5.77;5.17;;;;;;;3.13;65.77;97624.69;4960080;28;20260;-52
2022/03/08 09:39:57;;;;;;;4.63;4.23;;;;;;;3.20;60.73;97628.44;4925642;28;20226;-50
2022/03/08 09:42:25;;;;;;;6.30;5.07;;;;;;;3.37;60.51;97637.53;4959819;28;20210;-53
2022/03/08 09:44:53;;;;;;;4.93;4.50;;;;;;;3.27;57.75;97645.31;4959430;28;20494;-50
2022/03/08 09:47:22;;;;;;;4.43;4.07;;;;;;;3.46;56.01;97642.00;4952292;28;20596;-51
2022/03/08 09:49:52;;;;;;;4.60;4.13;;;;;;;3.57;55.56;97638.50;4951730;28;20209;-48
2022/03/08 09:52:20;;;;;;;5.67;5.13;;;;;;;3.60;56.09;97634.78;4955883;28;20633;-56
2022/03/08 09:54:48;;;;;;;4.23;3.83;;;;;;;3.67;54.86;97640.34;4928310;28;20312;-52
2022/03/08 09:57:28;;;;;;;3.17;2.90;;;;;;;3.79;50.58;97636.69;4956431;28;20340;-56
2022/03/08 09:59:57;;;;;;;8.47;4.33;;;;;;;3.79;51.27;97644.56;4961884;28;20221;-55
2022/03/08 10:02:26;;;;;;;4.17;3.87;;;;;;;4.13;50.75;97639.03;4946732;28;20225;-54
2022/03/08 10:05:07;;;;;;;4.43;4.03;;;;;;;4.11;51.71;97638.34;4953701;28;21030;-51
2022/03/08 10:07:35;;;;;;;15.07;6.03;;;;;;;4.24;51.20;97642.56;4957526;28;20229;-49
2022/03/08 10:10:04;;;;;;;6.93;4.50;;;;;;;4.21;51.16;97641.00;4927689;28;20401;-55
2022/03/08 10:12:57;;;;;;;4.10;3.80;;;;;;;3.70;52.21;97645.31;4959706;28;20201;-51
2022/03/08 10:15:25;;;;;;;6.03;3.93;;;;;;;3.72;52.31;97628.50;4953652;28;20214;-57
2022/03/08 10:17:54;;;;;;;4.70;4.30;;;;;;;3.58;52.68;97634.91;4949778;28;20213;-53
2022/03/08 10:20:30;;;;;;;5.40;4.87;;;;;;;3.81;51.56;97641.78;4958852;28;20230;-54
2022/03/08 10:22:59;;;;;;;5.10;3.83;;;;;;;3.65;51.89;97643.09;4964054;28;20752;-51
2022/03/08 10:25:30;;;;;;;4.63;4.23;;;;;;;3.62;51.25;97632.88;4922276;28;20300;-48
2022/03/08 10:28:03;;;;;;;4.40;4.00;;;;;;;3.83;51.84;97634.63;4956912;28;20205;-49
2022/03/08 10:30:48;;;;;;;4.13;3.70;;;;;;;3.92;50.16;97623.34;4955988;28;20198;-52
2022/03/08 10:33:36;;;;;;;3.47;3.17;;;;;;;3.66;49.13;97618.56;4944114;28;20364;-53
2022/03/08 10:36:13;;;;;;;3.23;3.03;;;;;;;3.67;49.28;97628.06;4963950;28;20728;-49
2022/03/08 10:38:42;;;;;;;3.10;2.90;;;;;;;4.01;49.61;97619.13;4949582;28;20890;-54
2022/03/08 10:41:20;;;;;;;4.20;3.67;;;;;;;3.94;49.61;97618.81;4923935;28;20574;-49
2022/03/08 10:43:49;;;;;;;3.73;3.00;;;;;;;4.22;48.28;97626.13;4959957;28;20897;-49
2022/03/08 10:46:18;;;;;;;3.13;2.93;;;;;;;4.05;47.29;97623.13;4961451;28;20232;-51
2022/03/08 10:48:47;;;;;;;3.20;3.00;;;;;;;4.12;48.51;97623.44;4952537;28;20825;-52
2022/03/08 10:51:18;;;;;;;3.90;3.60;;;;;;;4.00;47.67;97615.69;4966022;28;20217;-55
2022/03/08 10:53:46;;;;;;;3.63;3.30;;;;;;;3.99;48.27;97616.66;4951702;28;20340;-52
2022/03/08 10:56:21;;;;;;;5.80;3.63;;;;;;;4.16;48.39;97612.53;4931291;28;20329;-57
2022/03/08 10:58:50;;;;;;;4.70;3.93;;;;;;;4.19;47.77;97606.22;4959398;28;20288;-51
2022/03/08 11:01:19;;;;;;;10.90;4.07;;;;;;;4.12;48.20;97610.34;4962454;28;20321;-51
2022/03/08 11:03:58;;;;;;;3.40;3.20;;;;;;;4.12;46.73;97607.72;4950633;28;21152;-50
2022/03/08 11:06:27;;;;;;;4.03;3.57;;;;;;;4.03;47.47;97601.47;4961277;28;20320;-55
2022/03/08 11:08:56;;;;;;;3.90;3.60;;;;;;;4.28;47.76;97591.47;4955069;28;20326;-53
2022/03/08 11:11:24;;;;;;;5.70;3.73;;;;;;;4.46;46.89;97596.91;4938293;28;20454;-53
2022/03/08 11:13:54;;;;;;;5.70;4.60;;;;;;;4.57;46.57;97603.84;4960152;28;20749;-54
2022/03/08 11:16:23;;;;;;;4.43;3.97;;;;;;;4.47;46.24;97595.94;4968528;28;20332;-54
2022/03/08 11:18:52;;;;;;;4.13;3.73;;;;;;;4.43;46.37;97594.56;4954931;28;20225;-56
2022/03/08 11:21:21;;;;;;;3.47;3.17;;;;;;;4.51;46.08;97599.09;4960498;28;20429;-52
2022/03/08 11:23:52;;;;;;;3.93;3.57;;;;;;;4.70;45.40;97585.19;4954885;28;20206;-53
2022/03/08 11:26:21;;;;;;;3.60;3.23;;;;;;;4.69;46.07;97581.75;4962352;28;20256;-53
2022/03/08 11:28:50;;;;;;;4.20;3.80;;;;;;;4.80;45.24;97586.03;4923482;28;20876;-53
2022/03/08 11:31:19;;;;;;;4.10;3.70;;;;;;;4.78;45.72;97578.28;4963025;28;20300;-52